createdAt,value
2019-04-10T00:00:24.714Z,2.62
2019-04-10T00:02:55.546Z,2.55
2019-04-10T00:05:26.041Z,2.61
2019-04-10T00:07:55.758Z,2.64
2019-04-10T00:10:25.757Z,2.66
2019-04-10T00:12:56.149Z,2.59
2019-04-10T00:15:26.360Z,2.65
2019-04-10T00:17:56.036Z,2.64
2019-04-10T00:20:26.664Z,2.59
2019-04-10T00:22:56.234Z,2.58
2019-04-10T00:25:26.548Z,2.45
2019-04-10T00:27:56.336Z,2.52
2019-04-10T00:30:27.057Z,2.51
2019-04-10T00:32:56.860Z,2.51
2019-04-10T00:35:27.307Z,2.51
2019-04-10T00:37:57.540Z,2.55
2019-04-10T00:40:27.671Z,2.57
2019-04-10T00:42:58.600Z,2.61
2019-04-10T00:45:29.308Z,2.74
2019-04-10T00:47:59.569Z,2.82
2019-04-10T00:50:29.296Z,2.78
2019-04-10T00:52:58.826Z,2.77
2019-04-10T00:55:28.819Z,2.79
2019-04-10T00:57:58.655Z,2.81
2019-04-10T01:00:28.800Z,2.81
2019-04-10T01:02:58.831Z,2.83
2019-04-10T01:05:28.548Z,2.85
2019-04-10T01:07:58.342Z,2.84
2019-04-10T01:10:28.563Z,2.88
2019-04-10T01:12:58.717Z,2.92
2019-04-10T01:15:28.873Z,2.88
2019-04-10T01:17:59.088Z,2.97
2019-04-10T01:20:29.345Z,2.96
2019-04-10T01:22:59.462Z,3.03
2019-04-10T01:25:30.182Z,3.14
2019-04-10T01:28:00.535Z,3.15
2019-04-10T01:30:30.567Z,3.21
2019-04-10T01:33:00.735Z,3.23
2019-04-10T01:35:30.589Z,3.26
2019-04-10T01:38:01.471Z,3.29
2019-04-10T01:40:31.454Z,3.26
2019-04-10T01:43:09.289Z,3.25
2019-04-10T01:45:33.439Z,3.26
2019-04-10T01:48:03.764Z,3.37
2019-04-10T01:50:34.993Z,3.48
2019-04-10T01:53:04.465Z,3.58
2019-04-10T01:55:34.735Z,3.52
2019-04-10T01:58:06.781Z,3.52
2019-04-10T02:00:38.115Z,3.58
2019-04-10T02:03:07.721Z,3.57
2019-04-10T02:05:37.288Z,3.61
2019-04-10T02:08:10.355Z,3.66
2019-04-10T02:10:38.500Z,3.77
2019-04-10T02:13:07.996Z,3.76
2019-04-10T02:15:38.397Z,3.62
2019-04-10T02:18:08.875Z,3.68
2019-04-10T02:20:38.863Z,3.67
2019-04-10T02:23:08.577Z,3.64
2019-04-10T02:25:39.083Z,3.74
2019-04-10T02:28:08.995Z,3.73
2019-04-10T02:30:39.592Z,3.67
2019-04-10T02:33:10.743Z,3.81
2019-04-10T02:35:40.857Z,3.81
2019-04-10T02:38:25.932Z,3.78
2019-04-10T02:40:43.240Z,3.77
2019-04-10T02:43:14.435Z,3.72
2019-04-10T02:45:49.370Z,3.72
2019-04-10T02:48:19.456Z,3.73
2019-04-10T02:50:51.425Z,3.73
2019-04-10T02:53:21.717Z,3.72
2019-04-10T02:55:53.552Z,3.72
2019-04-10T02:58:24.273Z,3.63
2019-04-10T03:00:56.205Z,3.57
2019-04-10T03:03:25.797Z,3.56
2019-04-10T03:05:56.545Z,3.49
2019-04-10T03:08:40.998Z,3.47
2019-04-10T03:11:03.607Z,3.55
2019-04-10T03:13:29.341Z,3.52
2019-04-10T03:16:00.165Z,3.54
2019-04-10T03:18:30.542Z,3.39
2019-04-10T03:21:00.202Z,3.33
2019-04-10T03:23:29.697Z,3.28
2019-04-10T03:25:59.486Z,3.29
2019-04-10T03:28:29.469Z,3.21
2019-04-10T03:31:01.115Z,3.10
2019-04-10T03:33:45.435Z,3.03
2019-04-10T03:36:12.113Z,2.97
2019-04-10T03:38:54.495Z,2.91
2019-04-10T03:41:12.725Z,2.85
2019-04-10T03:43:42.204Z,2.87
2019-04-10T03:46:11.655Z,2.90
2019-04-10T03:48:41.142Z,2.87
2019-04-10T03:51:10.590Z,2.94
2019-04-10T03:53:40.356Z,2.94
2019-04-10T03:56:09.760Z,2.88
2019-04-10T03:58:39.795Z,2.80
2019-04-10T04:01:09.776Z,2.71
2019-04-10T04:03:39.290Z,2.66
2019-04-10T04:06:09.067Z,2.54
2019-04-10T04:08:39.522Z,2.48
2019-04-10T04:11:09.409Z,2.37
2019-04-10T04:13:39.694Z,2.34
2019-04-10T04:16:09.190Z,2.27
2019-04-10T04:18:39.414Z,2.25
2019-04-10T04:21:09.724Z,2.21
2019-04-10T04:23:39.242Z,2.25
2019-04-10T04:26:08.702Z,2.16
2019-04-10T04:28:38.164Z,2.11
2019-04-10T04:31:07.803Z,2.01
2019-04-10T04:33:38.844Z,2.05
2019-04-10T04:36:08.566Z,2.04
2019-04-10T04:38:38.924Z,2.08
2019-04-10T04:41:09.015Z,2.03
2019-04-10T04:43:39.150Z,2.11
2019-04-10T04:46:10.112Z,2.17
2019-04-10T04:48:39.660Z,2.23
2019-04-10T04:51:09.112Z,2.26
2019-04-10T04:53:39.891Z,2.28
2019-04-10T04:56:09.544Z,2.26
2019-04-10T04:58:39.292Z,2.25
2019-04-10T05:01:17.203Z,2.40
2019-04-10T05:03:46.766Z,2.47
2019-04-10T05:06:16.279Z,2.47
2019-04-10T05:08:46.300Z,2.49
2019-04-10T05:11:16.201Z,2.56
2019-04-10T05:13:46.746Z,2.63
2019-04-10T05:16:16.603Z,2.78
2019-04-10T05:18:46.112Z,2.87
2019-04-10T05:21:16.973Z,2.97
2019-04-10T05:23:47.017Z,2.94
2019-04-10T05:26:16.635Z,3.02
2019-04-10T05:28:46.672Z,3.14
2019-04-10T05:31:17.251Z,3.30
2019-04-10T05:33:47.603Z,3.61
2019-04-10T05:36:17.344Z,3.90
2019-04-10T05:38:46.893Z,3.98
2019-04-10T05:41:17.505Z,4.44
2019-04-10T05:43:47.095Z,5.01
2019-04-10T05:46:16.707Z,5.46
2019-04-10T05:48:46.275Z,5.46
2019-04-10T05:51:17.027Z,5.67
2019-04-10T05:53:47.072Z,6.38
2019-04-10T05:56:19.065Z,6.52
2019-04-10T05:58:49.108Z,6.78
2019-04-10T06:01:31.339Z,7.20
2019-04-10T06:03:50.208Z,7.46
2019-04-10T06:06:20.078Z,7.36
2019-04-10T06:08:49.592Z,7.64
2019-04-10T06:11:19.045Z,8.01
2019-04-10T06:13:49.008Z,7.83
2019-04-10T06:16:19.543Z,8.48
2019-04-10T06:18:49.353Z,9.09
2019-04-10T06:21:19.153Z,9.64
2019-04-10T06:23:49.768Z,9.72
2019-04-10T06:26:19.852Z,10.38
2019-04-10T06:28:50.485Z,11.02
2019-04-10T06:31:20.746Z,10.95
2019-04-10T06:33:50.709Z,11.05
2019-04-10T06:36:20.132Z,11.14
2019-04-10T06:38:49.608Z,11.44
2019-04-10T06:41:20.049Z,12.22
2019-04-10T06:43:49.688Z,12.33
2019-04-10T06:46:20.123Z,11.74
2019-04-10T06:48:50.038Z,11.74
2019-04-10T06:51:21.253Z,12.04
2019-04-10T06:54:01.842Z,12.15
2019-04-10T06:56:22.251Z,12.47
2019-04-10T06:58:52.014Z,12.61
2019-04-10T07:01:24.281Z,11.62
2019-04-10T07:04:00.931Z,11.04
2019-04-10T07:06:42.721Z,10.82
2019-04-10T07:08:55.520Z,12.47
2019-04-10T07:11:28.400Z,12.47
2019-04-10T07:13:57.381Z,13.54
2019-04-10T07:16:29.999Z,12.79
2019-04-10T07:19:02.743Z,13.49
2019-04-10T07:21:32.904Z,11.93
2019-04-10T07:24:05.332Z,11.84
2019-04-10T07:26:39.325Z,12.59
2019-04-10T07:29:04.646Z,12.04
2019-04-10T07:31:36.311Z,12.17
2019-04-10T07:34:06.683Z,11.58
2019-04-10T07:36:39.921Z,11.30
2019-04-10T07:39:07.898Z,12.96
2019-04-10T07:41:37.778Z,12.40
2019-04-10T07:44:08.277Z,14.51
2019-04-10T07:46:38.213Z,14.05
2019-04-10T07:49:08.548Z,12.85
2019-04-10T07:51:38.898Z,12.97
2019-04-10T07:54:08.782Z,13.31
2019-04-10T07:56:39.292Z,13.29
2019-04-10T07:59:09.277Z,13.05
2019-04-10T08:01:40.440Z,14.28
2019-04-10T08:04:10.442Z,13.53
2019-04-10T08:06:39.925Z,12.57
2019-04-10T08:09:10.518Z,13.31
2019-04-10T08:11:40.234Z,12.95
2019-04-10T08:14:10.588Z,13.21
2019-04-10T08:16:40.094Z,14.39
2019-04-10T08:19:10.399Z,14.64
2019-04-10T08:21:40.330Z,15.11
2019-04-10T08:24:09.867Z,14.40
2019-04-10T08:26:39.421Z,14.46
2019-04-10T08:29:09.911Z,14.39
2019-04-10T08:31:39.734Z,15.01
2019-04-10T08:34:09.239Z,15.89
2019-04-10T08:36:39.476Z,16.11
2019-04-10T08:39:09.238Z,13.73
2019-04-10T08:41:38.752Z,13.13
2019-04-10T08:44:08.243Z,13.65
2019-04-10T08:46:38.022Z,13.40
2019-04-10T08:49:07.822Z,13.19
2019-04-10T08:51:37.439Z,12.78
2019-04-10T08:54:07.900Z,14.14
2019-04-10T08:56:38.606Z,14.37
2019-04-10T08:59:08.155Z,14.53
2019-04-10T09:01:37.712Z,13.53
2019-04-10T09:04:07.763Z,14.12
2019-04-10T09:06:37.752Z,13.02
2019-04-10T09:09:07.735Z,15.19
2019-04-10T09:11:37.576Z,14.99
2019-04-10T09:14:07.123Z,15.91
2019-04-10T09:16:36.731Z,15.81
2019-04-10T09:19:06.177Z,17.19
2019-04-10T09:21:35.663Z,17.33
2019-04-10T09:24:05.148Z,16.71
2019-04-10T09:26:34.632Z,14.66
2019-04-10T09:29:04.609Z,16.27
2019-04-10T09:31:34.047Z,15.85
2019-04-10T09:34:03.678Z,15.01
2019-04-10T09:36:33.374Z,16.72
2019-04-10T09:39:05.268Z,17.02
2019-04-10T09:41:34.835Z,16.71
2019-04-10T09:44:04.517Z,17.29
2019-04-10T09:46:35.002Z,16.63
2019-04-10T09:49:05.523Z,15.05
2019-04-10T09:51:36.168Z,16.53
2019-04-10T09:54:05.827Z,15.69
2019-04-10T09:56:36.407Z,14.49
2019-04-10T09:59:06.006Z,14.65
2019-04-10T10:01:35.844Z,14.50
2019-04-10T10:04:05.370Z,14.87
2019-04-10T10:06:36.655Z,15.53
2019-04-10T10:09:08.359Z,16.81
2019-04-10T10:11:38.600Z,16.89
2019-04-10T10:14:08.332Z,15.68
2019-04-10T10:16:38.062Z,15.97
2019-04-10T10:19:07.957Z,14.48
2019-04-10T10:21:38.814Z,15.38
2019-04-10T10:24:08.662Z,17.10
2019-04-10T10:26:38.312Z,16.68
2019-04-10T10:29:07.712Z,15.00
2019-04-10T10:31:38.023Z,16.52
2019-04-10T10:34:08.128Z,17.40
2019-04-10T10:36:41.868Z,18.74
2019-04-10T10:39:18.876Z,18.36
2019-04-10T10:41:49.043Z,17.06
2019-04-10T10:44:19.343Z,18.55
2019-04-10T10:46:49.540Z,18.59
2019-04-10T10:49:20.158Z,18.44
2019-04-10T10:51:49.633Z,18.09
2019-04-10T10:54:19.084Z,17.56
2019-04-10T10:56:48.917Z,18.44
2019-04-10T10:59:19.603Z,18.14
2019-04-10T11:01:49.186Z,17.55
2019-04-10T11:04:19.105Z,17.38
2019-04-10T11:06:56.066Z,16.77
2019-04-10T11:09:19.904Z,17.21
2019-04-10T11:11:49.531Z,17.19
2019-04-10T11:14:19.189Z,16.78
2019-04-10T11:16:49.473Z,16.09
2019-04-10T11:19:19.832Z,18.68
2019-04-10T11:21:49.713Z,18.75
2019-04-10T11:24:19.635Z,18.32
2019-04-10T11:26:50.414Z,18.99
2019-04-10T11:29:21.818Z,18.86
2019-04-10T11:31:51.856Z,17.89
2019-04-10T11:34:22.619Z,19.92
2019-04-10T11:37:12.908Z,20.06
2019-04-10T11:39:28.253Z,20.43
2019-04-10T11:41:55.321Z,20.19
2019-04-10T11:44:28.212Z,18.72
2019-04-10T11:46:58.977Z,19.09
2019-04-10T11:49:29.478Z,17.95
2019-04-10T11:52:01.430Z,17.84
2019-04-10T11:54:32.764Z,17.79
2019-04-10T11:57:03.238Z,17.89
2019-04-10T11:59:35.989Z,16.99
2019-04-10T12:04:45.049Z,16.35
2019-04-10T12:07:09.748Z,17.80
2019-04-10T12:12:09.431Z,18.11
2019-04-10T12:14:39.621Z,17.85
2019-04-10T12:17:09.650Z,17.67
2019-04-10T12:19:39.180Z,18.29
2019-04-10T12:22:09.504Z,17.64
2019-04-10T12:24:39.223Z,17.86
2019-04-10T12:27:09.195Z,18.12
2019-04-10T12:29:38.744Z,17.42
2019-04-10T12:32:08.437Z,17.13
2019-04-10T12:34:37.903Z,14.94
2019-04-10T12:37:07.438Z,15.64
2019-04-10T12:39:36.894Z,16.35
2019-04-10T12:42:07.942Z,14.83
2019-04-10T12:44:39.469Z,14.37
2019-04-10T12:47:08.622Z,14.80
2019-04-10T12:49:39.358Z,15.30
2019-04-10T12:52:10.080Z,14.98
2019-04-10T12:54:40.490Z,15.38
2019-04-10T12:57:10.602Z,16.05
2019-04-10T12:59:41.635Z,14.67
2019-04-10T13:02:12.326Z,14.82
2019-04-10T13:04:42.929Z,13.73
2019-04-10T13:07:13.643Z,14.42
2019-04-10T13:09:44.281Z,16.49
2019-04-10T13:12:13.838Z,16.17
2019-04-10T13:14:43.297Z,16.89
2019-04-10T13:17:13.052Z,15.79
2019-04-10T13:19:42.963Z,15.69
2019-04-10T13:22:12.714Z,15.18
2019-04-10T13:24:42.293Z,14.00
2019-04-10T13:27:12.577Z,16.04
2019-04-10T13:29:42.667Z,16.88
2019-04-10T13:32:12.184Z,16.24
2019-04-10T13:34:41.731Z,15.16
2019-04-10T13:37:12.327Z,14.72
2019-04-10T13:39:41.826Z,14.46
2019-04-10T13:42:11.377Z,16.91
2019-04-10T13:44:41.212Z,14.78
2019-04-10T13:47:10.717Z,13.73
2019-04-10T13:49:40.183Z,14.57
2019-04-10T13:52:09.996Z,14.86
2019-04-10T13:54:39.477Z,14.10
2019-04-10T13:57:09.790Z,14.47
2019-04-10T13:59:39.457Z,14.76
2019-04-10T14:02:10.660Z,16.11
2019-04-10T14:04:45.226Z,14.94
2019-04-10T14:07:17.947Z,15.98
2019-04-10T14:09:52.414Z,15.12
2019-04-10T14:12:24.945Z,13.80
2019-04-10T14:14:57.241Z,14.14
2019-04-10T14:17:58.085Z,12.68
2019-04-10T14:20:31.250Z,13.19
2019-04-10T14:23:08.333Z,13.78
2019-04-10T14:26:02.264Z,13.35
2019-04-10T14:28:37.522Z,14.64
2019-04-10T14:31:42.846Z,14.88
2019-04-10T14:34:20.223Z,14.26
2019-04-10T14:36:54.804Z,13.79
2019-04-10T14:39:29.999Z,14.50
2019-04-10T14:42:04.401Z,14.56
2019-04-10T14:44:40.940Z,14.17
2019-04-10T14:47:21.264Z,14.14
2019-04-10T14:49:54.895Z,14.05
2019-04-10T14:52:31.057Z,14.62
2019-04-10T14:55:01.954Z,14.38
2019-04-10T14:57:39.008Z,15.00
2019-04-10T15:00:20.239Z,14.63
2019-04-10T15:02:51.390Z,15.19
2019-04-10T15:05:26.013Z,13.94
2019-04-10T15:07:59.981Z,14.00
2019-04-10T15:10:42.075Z,13.79
2019-04-10T15:13:17.731Z,13.02
2019-04-10T15:15:45.119Z,13.48
2019-04-10T15:18:20.482Z,14.10
2019-04-10T15:21:00.844Z,14.31
2019-04-10T15:23:35.768Z,14.84
2019-04-10T15:26:13.420Z,14.75
2019-04-10T15:28:47.772Z,14.11
2019-04-10T15:31:19.394Z,13.26
2019-04-10T15:33:51.888Z,13.54
2019-04-10T15:36:29.749Z,13.28
2019-04-10T15:39:00.327Z,12.95
2019-04-10T15:41:39.340Z,13.38
2019-04-10T15:44:28.398Z,12.41
2019-04-10T15:47:15.166Z,12.88
2019-04-10T15:49:44.995Z,13.03
2019-04-10T15:52:24.616Z,12.60
2019-04-10T15:54:50.040Z,12.60
2019-04-10T15:57:22.761Z,12.48
2019-04-10T15:59:55.176Z,11.61
2019-04-10T16:02:30.568Z,11.61
2019-04-10T16:05:04.822Z,11.29
2019-04-10T16:07:42.893Z,11.40
2019-04-10T16:10:19.460Z,12.09
2019-04-10T16:13:00.697Z,12.21
2019-04-10T16:15:41.287Z,11.66
2019-04-10T16:18:28.443Z,11.94
2019-04-10T16:21:04.097Z,11.88
2019-04-10T16:23:44.231Z,11.84
2019-04-10T16:26:17.164Z,12.08
2019-04-10T16:28:56.407Z,12.08
2019-04-10T16:31:23.593Z,12.07
2019-04-10T16:34:00.869Z,11.88
2019-04-10T16:36:38.894Z,12.07
2019-04-10T16:39:15.447Z,11.94
2019-04-10T16:41:54.511Z,11.68
2019-04-10T16:44:24.811Z,11.68
2019-04-10T16:46:55.336Z,11.38
2019-04-10T16:49:24.857Z,11.11
2019-04-10T16:51:54.500Z,11.20
2019-04-10T16:54:25.033Z,11.12
2019-04-10T16:56:56.202Z,11.19
2019-04-10T16:59:26.157Z,11.11
2019-04-10T17:02:00.315Z,11.01
2019-04-10T17:04:29.881Z,10.52
2019-04-10T17:06:59.334Z,10.58
2019-04-10T17:09:29.886Z,10.52
2019-04-10T17:11:59.340Z,10.38
2019-04-10T17:14:29.325Z,10.43
2019-04-10T17:16:58.879Z,10.13
2019-04-10T17:19:28.761Z,9.79
2019-04-10T17:21:58.821Z,9.67
2019-04-10T17:24:29.291Z,9.63
2019-04-10T17:26:59.328Z,9.50
2019-04-10T17:29:29.393Z,9.42
2019-04-10T17:31:59.287Z,9.28
2019-04-10T17:34:29.021Z,9.09
2019-04-10T17:36:59.186Z,8.95
2019-04-10T17:39:28.745Z,8.85
2019-04-10T17:41:58.200Z,8.70
2019-04-10T17:44:27.723Z,8.65
2019-04-10T17:46:57.626Z,8.53
2019-04-10T17:49:27.699Z,8.45
2019-04-10T17:51:58.706Z,8.36
2019-04-10T17:54:29.762Z,8.21
2019-04-10T17:57:00.296Z,8.08
2019-04-10T17:59:30.241Z,7.97
2019-04-10T18:02:01.666Z,7.87
2019-04-10T18:04:31.907Z,7.79
2019-04-10T18:07:01.757Z,7.78
2019-04-10T18:09:32.699Z,7.87
2019-04-10T18:12:02.217Z,7.78
2019-04-10T18:14:31.648Z,7.62
2019-04-10T18:17:02.530Z,7.55
2019-04-10T18:19:32.442Z,7.49
2019-04-10T18:22:02.428Z,7.40
2019-04-10T18:24:33.133Z,7.30
2019-04-10T18:27:03.754Z,7.19
2019-04-10T18:29:33.244Z,7.15
2019-04-10T18:32:02.783Z,7.01
2019-04-10T18:34:33.378Z,6.96
2019-04-10T18:37:04.383Z,6.99
2019-04-10T18:39:34.640Z,6.93
2019-04-10T18:42:05.567Z,6.84
2019-04-10T18:44:35.321Z,6.72
2019-04-10T18:47:05.004Z,6.63
2019-04-10T18:49:34.389Z,6.52
2019-04-10T18:52:03.951Z,6.36
2019-04-10T18:54:34.000Z,6.27
2019-04-10T18:57:05.291Z,6.17
2019-04-10T18:59:39.325Z,6.03
2019-04-10T19:02:28.429Z,5.98
2019-04-10T19:05:14.001Z,5.94
2019-04-10T19:07:43.492Z,5.91
2019-04-10T19:10:12.948Z,5.82
2019-04-10T19:12:43.222Z,5.76
2019-04-10T19:15:13.250Z,5.70
2019-04-10T19:17:43.478Z,5.68
2019-04-10T19:20:13.503Z,5.50
2019-04-10T19:22:44.664Z,5.42
2019-04-10T19:25:14.576Z,5.29
2019-04-10T19:27:44.589Z,5.29
2019-04-10T19:30:17.152Z,5.27
2019-04-10T19:32:47.771Z,5.21
2019-04-10T19:35:17.562Z,5.18
2019-04-10T19:37:49.986Z,5.10
2019-04-10T19:40:19.190Z,5.03
2019-04-10T19:42:49.384Z,5.04
2019-04-10T19:45:19.514Z,5.03
2019-04-10T19:47:49.223Z,5.02
2019-04-10T19:50:19.442Z,5.02
2019-04-10T19:52:49.060Z,4.95
2019-04-10T19:55:19.813Z,4.88
2019-04-10T19:57:49.855Z,4.89
2019-04-10T20:00:22.156Z,4.85
2019-04-10T20:02:51.610Z,4.77
2019-04-10T20:05:21.215Z,4.79
2019-04-10T20:07:51.395Z,4.74
2019-04-10T20:10:21.350Z,4.74
2019-04-10T20:12:51.090Z,4.74
2019-04-10T20:15:20.566Z,4.67
2019-04-10T20:17:50.410Z,4.71
2019-04-10T20:20:20.017Z,4.68
2019-04-10T20:22:50.121Z,4.63
2019-04-10T20:25:20.111Z,4.59
2019-04-10T20:27:50.103Z,4.54
2019-04-10T20:30:21.505Z,4.53
2019-04-10T20:32:50.972Z,4.50
2019-04-10T20:35:20.487Z,4.51
2019-04-10T20:37:51.151Z,4.55
2019-04-10T20:40:20.837Z,4.69
2019-04-10T20:42:50.859Z,4.78
2019-04-10T20:45:21.124Z,4.74
2019-04-10T20:47:51.843Z,4.76
2019-04-10T20:50:21.398Z,4.78
2019-04-10T20:52:51.562Z,4.80
2019-04-10T20:55:21.635Z,4.80
2019-04-10T20:57:52.075Z,4.67
2019-04-10T21:00:30.154Z,4.62
2019-04-10T21:03:00.670Z,4.68
2019-04-10T21:05:30.185Z,4.61
2019-04-10T21:07:59.893Z,4.62
2019-04-10T21:10:29.419Z,4.51
2019-04-10T21:12:59.680Z,4.59
2019-04-10T21:15:29.973Z,4.55
2019-04-10T21:17:59.463Z,4.43
2019-04-10T21:20:28.931Z,4.27
2019-04-10T21:22:58.473Z,4.24
2019-04-10T21:25:27.939Z,4.16
2019-04-10T21:27:57.832Z,4.11
2019-04-10T21:30:29.003Z,4.10
2019-04-10T21:33:16.824Z,4.11
2019-04-10T21:35:47.656Z,3.99
2019-04-10T21:38:17.302Z,3.96
2019-04-10T21:40:47.409Z,4.03
2019-04-10T21:43:16.941Z,4.04
2019-04-10T21:45:47.560Z,3.94
2019-04-10T21:48:17.026Z,3.91
2019-04-10T21:50:46.516Z,3.81
2019-04-10T21:53:16.452Z,3.86
2019-04-10T21:55:45.986Z,3.82
2019-04-10T21:58:16.365Z,3.75
2019-04-10T22:00:53.120Z,3.67
2019-04-10T22:03:23.464Z,3.72
2019-04-10T22:06:00.005Z,3.59
2019-04-10T22:08:37.152Z,3.53
2019-04-10T22:11:08.434Z,3.50
2019-04-10T22:13:38.094Z,3.44
2019-04-10T22:16:09.443Z,3.35
2019-04-10T22:18:39.408Z,3.36
2019-04-10T22:21:09.342Z,3.35
2019-04-10T22:23:38.793Z,3.38
2019-04-10T22:26:09.255Z,3.34
2019-04-10T22:28:39.351Z,3.29
2019-04-10T22:31:09.622Z,3.24
2019-04-10T22:33:40.443Z,3.22
2019-04-10T22:36:10.972Z,3.18
2019-04-10T22:38:41.855Z,3.13
2019-04-10T22:41:20.635Z,3.09
2019-04-10T22:43:44.970Z,3.20
2019-04-10T22:46:15.126Z,3.07
2019-04-10T22:48:45.531Z,2.98
2019-04-10T22:51:15.261Z,2.99
2019-04-10T22:53:45.869Z,2.96
2019-04-10T22:56:15.764Z,2.85
2019-04-10T22:58:45.630Z,2.88
2019-04-10T23:01:15.614Z,2.80
2019-04-10T23:03:45.382Z,2.76
2019-04-10T23:06:15.295Z,2.78
2019-04-10T23:08:44.918Z,2.68
2019-04-10T23:11:15.229Z,2.60
2019-04-10T23:13:45.879Z,2.62
2019-04-10T23:16:17.110Z,2.73
2019-04-10T23:18:47.677Z,2.66
2019-04-10T23:21:18.549Z,2.83
2019-04-10T23:23:48.921Z,2.80
2019-04-10T23:26:20.733Z,2.74
2019-04-10T23:28:51.709Z,2.57
2019-04-10T23:31:21.623Z,2.61
2019-04-10T23:33:52.347Z,2.58
2019-04-10T23:36:23.543Z,2.64
2019-04-10T23:38:53.480Z,2.77
2019-04-10T23:41:23.368Z,2.74
2019-04-10T23:43:53.640Z,2.64
2019-04-10T23:46:23.555Z,2.41
2019-04-10T23:48:53.443Z,2.29
2019-04-10T23:51:23.357Z,2.28
2019-04-10T23:53:53.138Z,2.14
2019-04-10T23:56:22.620Z,2.21
2019-04-10T23:58:52.083Z,2.12
